sensor_id;sensor_type;location;lat;lon;timestamp;P1;durP1;ratioP1;P2;durP2;ratioP2
15490;SDS011;7847;50.930;4.336;2023-04-15T00:01:43;0.30;;;0.30;;
15490;SDS011;7847;50.930;4.336;2023-04-15T00:04:09;0.30;;;0.30;;
15490;SDS011;7847;50.930;4.336;2023-04-15T00:06:36;0.30;;;0.30;;
15490;SDS011;7847;50.930;4.336;2023-04-15T00:09:03;0.30;;;0.30;;
15490;SDS011;7847;50.930;4.336;2023-04-15T00:11:29;0.30;;;0.30;;
15490;SDS011;7847;50.930;4.336;2023-04-15T00:13:56;0.30;;;0.30;;
15490;SDS011;7847;50.930;4.336;2023-04-15T00:16:22;0.30;;;0.30;;
15490;SDS011;7847;50.930;4.336;2023-04-15T00:18:48;0.30;;;0.30;;
15490;SDS011;7847;50.930;4.336;2023-04-15T00:21:14;0.30;;;0.30;;
15490;SDS011;7847;50.930;4.336;2023-04-15T00:23:41;0.30;;;0.30;;
15490;SDS011;7847;50.930;4.336;2023-04-15T00:26:07;0.30;;;0.30;;
15490;SDS011;7847;50.930;4.336;2023-04-15T00:28:34;0.30;;;0.30;;
15490;SDS011;7847;50.930;4.336;2023-04-15T00:31:00;0.30;;;0.30;;
15490;SDS011;7847;50.930;4.336;2023-04-15T00:33:26;0.30;;;0.30;;
15490;SDS011;7847;50.930;4.336;2023-04-15T00:35:52;0.30;;;0.30;;
15490;SDS011;7847;50.930;4.336;2023-04-15T00:38:18;0.30;;;0.30;;
15490;SDS011;7847;50.930;4.336;2023-04-15T00:40:44;0.30;;;0.30;;
15490;SDS011;7847;50.930;4.336;2023-04-15T00:43:10;0.30;;;0.30;;
15490;SDS011;7847;50.930;4.336;2023-04-15T00:45:36;0.40;;;0.40;;
15490;SDS011;7847;50.930;4.336;2023-04-15T00:48:03;0.30;;;0.30;;
15490;SDS011;7847;50.930;4.336;2023-04-15T00:50:29;0.30;;;0.30;;
15490;SDS011;7847;50.930;4.336;2023-04-15T00:52:55;0.40;;;0.40;;
15490;SDS011;7847;50.930;4.336;2023-04-15T00:55:22;0.37;;;0.37;;
15490;SDS011;7847;50.930;4.336;2023-04-15T00:57:48;0.30;;;0.30;;
15490;SDS011;7847;50.930;4.336;2023-04-15T01:00:14;0.30;;;0.30;;
15490;SDS011;7847;50.930;4.336;2023-04-15T01:02:40;0.30;;;0.30;;
15490;SDS011;7847;50.930;4.336;2023-04-15T01:05:06;0.30;;;0.30;;
15490;SDS011;7847;50.930;4.336;2023-04-15T01:07:33;0.30;;;0.30;;
15490;SDS011;7847;50.930;4.336;2023-04-15T01:09:59;0.40;;;0.40;;
15490;SDS011;7847;50.930;4.336;2023-04-15T01:12:26;0.30;;;0.30;;
15490;SDS011;7847;50.930;4.336;2023-04-15T01:14:53;0.30;;;0.30;;
15490;SDS011;7847;50.930;4.336;2023-04-15T01:17:20;0.30;;;0.30;;
15490;SDS011;7847;50.930;4.336;2023-04-15T01:19:46;0.40;;;0.40;;
15490;SDS011;7847;50.930;4.336;2023-04-15T01:22:13;0.30;;;0.30;;
15490;SDS011;7847;50.930;4.336;2023-04-15T01:24:39;0.30;;;0.30;;
15490;SDS011;7847;50.930;4.336;2023-04-15T01:27:05;0.30;;;0.30;;
15490;SDS011;7847;50.930;4.336;2023-04-15T01:29:32;0.30;;;0.30;;
15490;SDS011;7847;50.930;4.336;2023-04-15T01:31:58;0.30;;;0.30;;
15490;SDS011;7847;50.930;4.336;2023-04-15T01:34:24;0.30;;;0.30;;
15490;SDS011;7847;50.930;4.336;2023-04-15T01:36:50;0.30;;;0.30;;
15490;SDS011;7847;50.930;4.336;2023-04-15T01:39:16;0.30;;;0.30;;
15490;SDS011;7847;50.930;4.336;2023-04-15T01:41:43;0.30;;;0.30;;
15490;SDS011;7847;50.930;4.336;2023-04-15T01:44:09;0.30;;;0.30;;
15490;SDS011;7847;50.930;4.336;2023-04-15T01:46:35;0.30;;;0.30;;
15490;SDS011;7847;50.930;4.336;2023-04-15T01:49:01;0.30;;;0.30;;
15490;SDS011;7847;50.930;4.336;2023-04-15T01:51:27;0.30;;;0.30;;
15490;SDS011;7847;50.930;4.336;2023-04-15T01:53:53;0.30;;;0.30;;
15490;SDS011;7847;50.930;4.336;2023-04-15T01:56:22;0.30;;;0.30;;
15490;SDS011;7847;50.930;4.336;2023-04-15T01:58:49;0.30;;;0.30;;
15490;SDS011;7847;50.930;4.336;2023-04-15T02:01:15;0.30;;;0.30;;
15490;SDS011;7847;50.930;4.336;2023-04-15T02:03:43;0.30;;;0.30;;
15490;SDS011;7847;50.930;4.336;2023-04-15T02:06:10;0.30;;;0.30;;
15490;SDS011;7847;50.930;4.336;2023-04-15T02:08:36;0.30;;;0.30;;
15490;SDS011;7847;50.930;4.336;2023-04-15T02:11:03;0.30;;;0.30;;
15490;SDS011;7847;50.930;4.336;2023-04-15T02:13:29;0.30;;;0.30;;
15490;SDS011;7847;50.930;4.336;2023-04-15T02:15:55;0.30;;;0.30;;
15490;SDS011;7847;50.930;4.336;2023-04-15T02:18:21;0.33;;;0.33;;
15490;SDS011;7847;50.930;4.336;2023-04-15T02:20:49;0.30;;;0.30;;
15490;SDS011;7847;50.930;4.336;2023-04-15T02:23:15;0.30;;;0.30;;
15490;SDS011;7847;50.930;4.336;2023-04-15T02:25:42;0.30;;;0.30;;
15490;SDS011;7847;50.930;4.336;2023-04-15T02:28:08;0.30;;;0.30;;
15490;SDS011;7847;50.930;4.336;2023-04-15T02:30:34;0.40;;;0.40;;
15490;SDS011;7847;50.930;4.336;2023-04-15T02:33:00;0.30;;;0.30;;
15490;SDS011;7847;50.930;4.336;2023-04-15T02:35:26;0.30;;;0.30;;
15490;SDS011;7847;50.930;4.336;2023-04-15T02:37:52;0.30;;;0.30;;
15490;SDS011;7847;50.930;4.336;2023-04-15T02:40:18;0.30;;;0.30;;
15490;SDS011;7847;50.930;4.336;2023-04-15T02:42:44;0.33;;;0.33;;
15490;SDS011;7847;50.930;4.336;2023-04-15T02:45:10;0.30;;;0.30;;
15490;SDS011;7847;50.930;4.336;2023-04-15T02:47:37;0.30;;;0.30;;
15490;SDS011;7847;50.930;4.336;2023-04-15T02:50:07;0.33;;;0.33;;
15490;SDS011;7847;50.930;4.336;2023-04-15T02:52:33;0.40;;;0.40;;
15490;SDS011;7847;50.930;4.336;2023-04-15T02:55:00;0.30;;;0.30;;
15490;SDS011;7847;50.930;4.336;2023-04-15T02:57:26;0.40;;;0.40;;
15490;SDS011;7847;50.930;4.336;2023-04-15T02:59:56;0.40;;;0.40;;
15490;SDS011;7847;50.930;4.336;2023-04-15T03:02:22;0.30;;;0.30;;
15490;SDS011;7847;50.930;4.336;2023-04-15T03:04:48;0.30;;;0.30;;
15490;SDS011;7847;50.930;4.336;2023-04-15T03:07:14;0.30;;;0.30;;
15490;SDS011;7847;50.930;4.336;2023-04-15T03:09:40;0.33;;;0.33;;
15490;SDS011;7847;50.930;4.336;2023-04-15T03:12:06;0.30;;;0.30;;
15490;SDS011;7847;50.930;4.336;2023-04-15T03:14:32;0.40;;;0.40;;
15490;SDS011;7847;50.930;4.336;2023-04-15T03:16:58;0.37;;;0.37;;
15490;SDS011;7847;50.930;4.336;2023-04-15T03:19:24;0.30;;;0.30;;
15490;SDS011;7847;50.930;4.336;2023-04-15T03:21:51;0.30;;;0.30;;
15490;SDS011;7847;50.930;4.336;2023-04-15T03:24:17;0.30;;;0.30;;
15490;SDS011;7847;50.930;4.336;2023-04-15T03:26:43;0.40;;;0.40;;
15490;SDS011;7847;50.930;4.336;2023-04-15T03:29:09;0.30;;;0.30;;
15490;SDS011;7847;50.930;4.336;2023-04-15T03:31:35;0.30;;;0.30;;
15490;SDS011;7847;50.930;4.336;2023-04-15T03:34:01;0.30;;;0.30;;
15490;SDS011;7847;50.930;4.336;2023-04-15T03:36:28;0.30;;;0.30;;
15490;SDS011;7847;50.930;4.336;2023-04-15T03:38:56;0.40;;;0.40;;
15490;SDS011;7847;50.930;4.336;2023-04-15T03:41:22;0.37;;;0.37;;
15490;SDS011;7847;50.930;4.336;2023-04-15T03:43:48;0.30;;;0.30;;
15490;SDS011;7847;50.930;4.336;2023-04-15T03:46:16;0.30;;;0.30;;
15490;SDS011;7847;50.930;4.336;2023-04-15T03:48:42;0.30;;;0.30;;
15490;SDS011;7847;50.930;4.336;2023-04-15T03:51:08;0.40;;;0.40;;
15490;SDS011;7847;50.930;4.336;2023-04-15T03:53:35;0.30;;;0.30;;
15490;SDS011;7847;50.930;4.336;2023-04-15T03:56:01;0.30;;;0.30;;
15490;SDS011;7847;50.930;4.336;2023-04-15T03:58:27;0.40;;;0.40;;
15490;SDS011;7847;50.930;4.336;2023-04-15T04:00:53;0.30;;;0.30;;
15490;SDS011;7847;50.930;4.336;2023-04-15T04:03:19;0.30;;;0.30;;
15490;SDS011;7847;50.930;4.336;2023-04-15T04:05:45;0.30;;;0.30;;
15490;SDS011;7847;50.930;4.336;2023-04-15T04:08:11;0.30;;;0.30;;
15490;SDS011;7847;50.930;4.336;2023-04-15T04:10:38;0.37;;;0.37;;
15490;SDS011;7847;50.930;4.336;2023-04-15T04:13:04;0.30;;;0.30;;
15490;SDS011;7847;50.930;4.336;2023-04-15T04:15:31;0.30;;;0.30;;
15490;SDS011;7847;50.930;4.336;2023-04-15T04:17:57;0.30;;;0.30;;
15490;SDS011;7847;50.930;4.336;2023-04-15T04:20:23;0.40;;;0.40;;
15490;SDS011;7847;50.930;4.336;2023-04-15T04:22:49;0.40;;;0.40;;
15490;SDS011;7847;50.930;4.336;2023-04-15T04:25:15;0.30;;;0.30;;
15490;SDS011;7847;50.930;4.336;2023-04-15T04:27:41;0.30;;;0.30;;
15490;SDS011;7847;50.930;4.336;2023-04-15T04:30:09;0.40;;;0.40;;
15490;SDS011;7847;50.930;4.336;2023-04-15T04:32:35;0.40;;;0.40;;
15490;SDS011;7847;50.930;4.336;2023-04-15T04:35:01;0.30;;;0.30;;
15490;SDS011;7847;50.930;4.336;2023-04-15T04:37:27;0.30;;;0.30;;
15490;SDS011;7847;50.930;4.336;2023-04-15T04:39:54;0.30;;;0.30;;
15490;SDS011;7847;50.930;4.336;2023-04-15T04:42:20;0.40;;;0.40;;
15490;SDS011;7847;50.930;4.336;2023-04-15T04:44:46;0.40;;;0.40;;
15490;SDS011;7847;50.930;4.336;2023-04-15T04:47:12;0.40;;;0.40;;
15490;SDS011;7847;50.930;4.336;2023-04-15T04:49:38;0.30;;;0.30;;
15490;SDS011;7847;50.930;4.336;2023-04-15T04:52:05;0.30;;;0.30;;
15490;SDS011;7847;50.930;4.336;2023-04-15T04:54:31;0.40;;;0.40;;
15490;SDS011;7847;50.930;4.336;2023-04-15T04:56:57;0.30;;;0.30;;
15490;SDS011;7847;50.930;4.336;2023-04-15T04:59:24;0.30;;;0.30;;
15490;SDS011;7847;50.930;4.336;2023-04-15T05:01:50;0.30;;;0.30;;
15490;SDS011;7847;50.930;4.336;2023-04-15T05:04:16;0.40;;;0.40;;
15490;SDS011;7847;50.930;4.336;2023-04-15T05:06:42;0.40;;;0.40;;
15490;SDS011;7847;50.930;4.336;2023-04-15T05:09:08;0.30;;;0.30;;
15490;SDS011;7847;50.930;4.336;2023-04-15T05:11:34;0.30;;;0.30;;
15490;SDS011;7847;50.930;4.336;2023-04-15T05:14:00;0.40;;;0.40;;
15490;SDS011;7847;50.930;4.336;2023-04-15T05:16:26;0.40;;;0.40;;
15490;SDS011;7847;50.930;4.336;2023-04-15T05:18:53;0.30;;;0.30;;
15490;SDS011;7847;50.930;4.336;2023-04-15T05:21:19;0.40;;;0.40;;
15490;SDS011;7847;50.930;4.336;2023-04-15T05:23:45;0.30;;;0.30;;
15490;SDS011;7847;50.930;4.336;2023-04-15T05:26:11;0.30;;;0.30;;
15490;SDS011;7847;50.930;4.336;2023-04-15T05:28:37;0.40;;;0.40;;
15490;SDS011;7847;50.930;4.336;2023-04-15T05:31:03;0.30;;;0.30;;
15490;SDS011;7847;50.930;4.336;2023-04-15T05:33:31;0.30;;;0.30;;
15490;SDS011;7847;50.930;4.336;2023-04-15T05:35:58;0.30;;;0.30;;
15490;SDS011;7847;50.930;4.336;2023-04-15T05:38:24;0.33;;;0.33;;
15490;SDS011;7847;50.930;4.336;2023-04-15T05:40:51;0.40;;;0.40;;
15490;SDS011;7847;50.930;4.336;2023-04-15T05:43:17;0.30;;;0.30;;
15490;SDS011;7847;50.930;4.336;2023-04-15T05:45:43;0.30;;;0.30;;
15490;SDS011;7847;50.930;4.336;2023-04-15T05:48:09;0.40;;;0.40;;
15490;SDS011;7847;50.930;4.336;2023-04-15T05:50:35;0.40;;;0.40;;
15490;SDS011;7847;50.930;4.336;2023-04-15T05:53:01;0.30;;;0.30;;
15490;SDS011;7847;50.930;4.336;2023-04-15T05:55:27;0.30;;;0.30;;
15490;SDS011;7847;50.930;4.336;2023-04-15T05:57:53;0.40;;;0.40;;
15490;SDS011;7847;50.930;4.336;2023-04-15T06:00:19;0.40;;;0.40;;
15490;SDS011;7847;50.930;4.336;2023-04-15T06:02:46;0.30;;;0.30;;
15490;SDS011;7847;50.930;4.336;2023-04-15T06:05:12;0.30;;;0.30;;
15490;SDS011;7847;50.930;4.336;2023-04-15T06:07:38;0.40;;;0.40;;
15490;SDS011;7847;50.930;4.336;2023-04-15T06:10:05;0.30;;;0.30;;
15490;SDS011;7847;50.930;4.336;2023-04-15T06:12:31;0.40;;;0.40;;
15490;SDS011;7847;50.930;4.336;2023-04-15T06:14:57;0.40;;;0.40;;
15490;SDS011;7847;50.930;4.336;2023-04-15T06:17:23;0.30;;;0.30;;
15490;SDS011;7847;50.930;4.336;2023-04-15T06:19:49;0.30;;;0.30;;
15490;SDS011;7847;50.930;4.336;2023-04-15T06:22:20;0.40;;;0.40;;
15490;SDS011;7847;50.930;4.336;2023-04-15T06:24:47;0.30;;;0.30;;
15490;SDS011;7847;50.930;4.336;2023-04-15T06:27:14;0.30;;;0.30;;
15490;SDS011;7847;50.930;4.336;2023-04-15T06:29:40;0.30;;;0.30;;
15490;SDS011;7847;50.930;4.336;2023-04-15T06:32:07;0.30;;;0.30;;
15490;SDS011;7847;50.930;4.336;2023-04-15T06:34:33;0.30;;;0.30;;
15490;SDS011;7847;50.930;4.336;2023-04-15T06:36:59;0.40;;;0.40;;
15490;SDS011;7847;50.930;4.336;2023-04-15T06:39:25;0.30;;;0.30;;
15490;SDS011;7847;50.930;4.336;2023-04-15T06:41:51;0.30;;;0.30;;
15490;SDS011;7847;50.930;4.336;2023-04-15T06:44:17;0.30;;;0.30;;
15490;SDS011;7847;50.930;4.336;2023-04-15T06:46:44;0.40;;;0.40;;
15490;SDS011;7847;50.930;4.336;2023-04-15T06:49:10;0.30;;;0.30;;
15490;SDS011;7847;50.930;4.336;2023-04-15T06:51:36;0.33;;;0.33;;
15490;SDS011;7847;50.930;4.336;2023-04-15T06:54:03;0.30;;;0.30;;
15490;SDS011;7847;50.930;4.336;2023-04-15T06:56:33;0.30;;;0.30;;
15490;SDS011;7847;50.930;4.336;2023-04-15T06:58:59;0.40;;;0.40;;
15490;SDS011;7847;50.930;4.336;2023-04-15T07:01:26;0.30;;;0.30;;
15490;SDS011;7847;50.930;4.336;2023-04-15T07:03:52;0.30;;;0.30;;
15490;SDS011;7847;50.930;4.336;2023-04-15T07:06:18;0.30;;;0.30;;
15490;SDS011;7847;50.930;4.336;2023-04-15T07:08:46;0.30;;;0.30;;
15490;SDS011;7847;50.930;4.336;2023-04-15T07:11:12;0.30;;;0.30;;
15490;SDS011;7847;50.930;4.336;2023-04-15T07:13:38;0.30;;;0.30;;
15490;SDS011;7847;50.930;4.336;2023-04-15T07:16:04;0.30;;;0.30;;
15490;SDS011;7847;50.930;4.336;2023-04-15T07:18:30;0.30;;;0.30;;
15490;SDS011;7847;50.930;4.336;2023-04-15T07:20:56;0.30;;;0.30;;
15490;SDS011;7847;50.930;4.336;2023-04-15T07:23:22;0.30;;;0.30;;
15490;SDS011;7847;50.930;4.336;2023-04-15T07:25:48;0.30;;;0.30;;
15490;SDS011;7847;50.930;4.336;2023-04-15T07:28:15;0.30;;;0.30;;
15490;SDS011;7847;50.930;4.336;2023-04-15T07:30:41;0.30;;;0.30;;
15490;SDS011;7847;50.930;4.336;2023-04-15T07:33:07;0.30;;;0.30;;
15490;SDS011;7847;50.930;4.336;2023-04-15T07:35:33;0.40;;;0.40;;
15490;SDS011;7847;50.930;4.336;2023-04-15T07:37:59;0.30;;;0.30;;
15490;SDS011;7847;50.930;4.336;2023-04-15T07:40:26;0.30;;;0.30;;
15490;SDS011;7847;50.930;4.336;2023-04-15T07:42:53;0.30;;;0.30;;
15490;SDS011;7847;50.930;4.336;2023-04-15T07:45:19;0.30;;;0.30;;
15490;SDS011;7847;50.930;4.336;2023-04-15T07:47:45;0.30;;;0.30;;
15490;SDS011;7847;50.930;4.336;2023-04-15T07:50:11;0.30;;;0.30;;
15490;SDS011;7847;50.930;4.336;2023-04-15T07:52:38;0.30;;;0.30;;
15490;SDS011;7847;50.930;4.336;2023-04-15T07:55:05;0.30;;;0.30;;
15490;SDS011;7847;50.930;4.336;2023-04-15T07:57:33;0.30;;;0.30;;
15490;SDS011;7847;50.930;4.336;2023-04-15T07:59:59;0.40;;;0.40;;
15490;SDS011;7847;50.930;4.336;2023-04-15T08:02:25;0.40;;;0.40;;
15490;SDS011;7847;50.930;4.336;2023-04-15T08:04:51;0.33;;;0.33;;
15490;SDS011;7847;50.930;4.336;2023-04-15T08:07:18;0.30;;;0.30;;
15490;SDS011;7847;50.930;4.336;2023-04-15T08:09:44;0.30;;;0.30;;
15490;SDS011;7847;50.930;4.336;2023-04-15T08:12:10;0.40;;;0.40;;
15490;SDS011;7847;50.930;4.336;2023-04-15T08:14:37;0.30;;;0.30;;
15490;SDS011;7847;50.930;4.336;2023-04-15T08:17:04;0.30;;;0.30;;
15490;SDS011;7847;50.930;4.336;2023-04-15T08:19:30;0.30;;;0.30;;
15490;SDS011;7847;50.930;4.336;2023-04-15T08:21:56;0.30;;;0.30;;
15490;SDS011;7847;50.930;4.336;2023-04-15T08:24:23;0.30;;;0.30;;
15490;SDS011;7847;50.930;4.336;2023-04-15T08:26:50;0.30;;;0.30;;
15490;SDS011;7847;50.930;4.336;2023-04-15T08:29:16;0.30;;;0.30;;
15490;SDS011;7847;50.930;4.336;2023-04-15T08:31:42;0.30;;;0.30;;
15490;SDS011;7847;50.930;4.336;2023-04-15T08:34:12;0.30;;;0.30;;
15490;SDS011;7847;50.930;4.336;2023-04-15T08:36:39;0.30;;;0.30;;
15490;SDS011;7847;50.930;4.336;2023-04-15T08:39:05;0.30;;;0.30;;
15490;SDS011;7847;50.930;4.336;2023-04-15T08:41:51;0.30;;;0.30;;
15490;SDS011;7847;50.930;4.336;2023-04-15T08:44:22;0.40;;;0.40;;
15490;SDS011;7847;50.930;4.336;2023-04-15T08:46:50;0.30;;;0.30;;
15490;SDS011;7847;50.930;4.336;2023-04-15T08:49:16;0.30;;;0.30;;
15490;SDS011;7847;50.930;4.336;2023-04-15T08:51:44;0.30;;;0.30;;
15490;SDS011;7847;50.930;4.336;2023-04-15T08:54:10;0.30;;;0.30;;
15490;SDS011;7847;50.930;4.336;2023-04-15T08:56:37;0.30;;;0.30;;
15490;SDS011;7847;50.930;4.336;2023-04-15T08:59:04;0.30;;;0.30;;
15490;SDS011;7847;50.930;4.336;2023-04-15T09:01:31;0.30;;;0.30;;
15490;SDS011;7847;50.930;4.336;2023-04-15T09:03:58;0.30;;;0.30;;
15490;SDS011;7847;50.930;4.336;2023-04-15T09:06:25;0.30;;;0.30;;
15490;SDS011;7847;50.930;4.336;2023-04-15T09:08:51;0.30;;;0.30;;
15490;SDS011;7847;50.930;4.336;2023-04-15T09:11:17;0.20;;;0.20;;
15490;SDS011;7847;50.930;4.336;2023-04-15T09:13:44;0.30;;;0.30;;
15490;SDS011;7847;50.930;4.336;2023-04-15T09:16:10;0.30;;;0.30;;
15490;SDS011;7847;50.930;4.336;2023-04-15T09:18:37;0.30;;;0.30;;
15490;SDS011;7847;50.930;4.336;2023-04-15T09:21:05;0.20;;;0.20;;
15490;SDS011;7847;50.930;4.336;2023-04-15T09:23:33;0.20;;;0.20;;
15490;SDS011;7847;50.930;4.336;2023-04-15T09:26:00;0.30;;;0.30;;
15490;SDS011;7847;50.930;4.336;2023-04-15T09:28:27;0.30;;;0.30;;
15490;SDS011;7847;50.930;4.336;2023-04-15T09:30:57;0.30;;;0.30;;
15490;SDS011;7847;50.930;4.336;2023-04-15T09:33:23;0.30;;;0.30;;
15490;SDS011;7847;50.930;4.336;2023-04-15T09:36:01;0.20;;;0.20;;
15490;SDS011;7847;50.930;4.336;2023-04-15T09:38:27;0.20;;;0.20;;
15490;SDS011;7847;50.930;4.336;2023-04-15T09:40:53;0.20;;;0.20;;
15490;SDS011;7847;50.930;4.336;2023-04-15T09:43:20;0.30;;;0.30;;
15490;SDS011;7847;50.930;4.336;2023-04-15T09:45:50;0.28;;;0.28;;
15490;SDS011;7847;50.930;4.336;2023-04-15T09:48:20;0.30;;;0.30;;
15490;SDS011;7847;50.930;4.336;2023-04-15T09:50:47;0.30;;;0.30;;
15490;SDS011;7847;50.930;4.336;2023-04-15T09:53:17;0.30;;;0.30;;
15490;SDS011;7847;50.930;4.336;2023-04-15T09:55:50;0.20;;;0.20;;
15490;SDS011;7847;50.930;4.336;2023-04-15T09:58:26;0.30;;;0.30;;
15490;SDS011;7847;50.930;4.336;2023-04-15T10:00:54;0.30;;;0.30;;
15490;SDS011;7847;50.930;4.336;2023-04-15T10:03:53;0.20;;;0.20;;
15490;SDS011;7847;50.930;4.336;2023-04-15T10:06:13;0.20;;;0.20;;
15490;SDS011;7847;50.930;4.336;2023-04-15T10:08:40;0.30;;;0.30;;
15490;SDS011;7847;50.930;4.336;2023-04-15T10:11:06;0.30;;;0.30;;
15490;SDS011;7847;50.930;4.336;2023-04-15T10:13:32;0.20;;;0.20;;
15490;SDS011;7847;50.930;4.336;2023-04-15T10:16:04;0.30;;;0.30;;
15490;SDS011;7847;50.930;4.336;2023-04-15T10:18:33;0.20;;;0.20;;
15490;SDS011;7847;50.930;4.336;2023-04-15T10:21:00;0.30;;;0.30;;
15490;SDS011;7847;50.930;4.336;2023-04-15T10:23:26;0.30;;;0.30;;
15490;SDS011;7847;50.930;4.336;2023-04-15T10:25:53;0.20;;;0.20;;
15490;SDS011;7847;50.930;4.336;2023-04-15T10:28:19;0.30;;;0.30;;
15490;SDS011;7847;50.930;4.336;2023-04-15T10:30:47;0.30;;;0.30;;
15490;SDS011;7847;50.930;4.336;2023-04-15T10:33:14;0.20;;;0.20;;
15490;SDS011;7847;50.930;4.336;2023-04-15T10:35:41;0.20;;;0.20;;
15490;SDS011;7847;50.930;4.336;2023-04-15T10:40:53;0.20;;;0.20;;
15490;SDS011;7847;50.930;4.336;2023-04-15T10:43:37;0.20;;;0.20;;
15490;SDS011;7847;50.930;4.336;2023-04-15T10:46:06;0.20;;;0.20;;
15490;SDS011;7847;50.930;4.336;2023-04-15T10:48:32;0.20;;;0.20;;
15490;SDS011;7847;50.930;4.336;2023-04-15T10:51:01;0.30;;;0.30;;
15490;SDS011;7847;50.930;4.336;2023-04-15T10:53:27;0.30;;;0.30;;
15490;SDS011;7847;50.930;4.336;2023-04-15T10:55:55;0.20;;;0.20;;
15490;SDS011;7847;50.930;4.336;2023-04-15T10:58:22;0.20;;;0.20;;
15490;SDS011;7847;50.930;4.336;2023-04-15T11:00:49;0.20;;;0.20;;
15490;SDS011;7847;50.930;4.336;2023-04-15T11:03:38;0.20;;;0.20;;
15490;SDS011;7847;50.930;4.336;2023-04-15T11:06:05;0.30;;;0.30;;
15490;SDS011;7847;50.930;4.336;2023-04-15T11:11:16;0.35;;;0.35;;
15490;SDS011;7847;50.930;4.336;2023-04-15T11:13:49;0.20;;;0.20;;
15490;SDS011;7847;50.930;4.336;2023-04-15T11:16:16;0.25;;;0.25;;
15490;SDS011;7847;50.930;4.336;2023-04-15T11:18:43;0.22;;;0.22;;
15490;SDS011;7847;50.930;4.336;2023-04-15T11:21:18;0.20;;;0.20;;
15490;SDS011;7847;50.930;4.336;2023-04-15T11:23:44;0.30;;;0.30;;
15490;SDS011;7847;50.930;4.336;2023-04-15T11:26:11;0.22;;;0.22;;
15490;SDS011;7847;50.930;4.336;2023-04-15T11:28:38;0.20;;;0.20;;
15490;SDS011;7847;50.930;4.336;2023-04-15T11:31:05;0.20;;;0.20;;
15490;SDS011;7847;50.930;4.336;2023-04-15T11:33:32;0.30;;;0.30;;
15490;SDS011;7847;50.930;4.336;2023-04-15T11:35:59;0.20;;;0.20;;
15490;SDS011;7847;50.930;4.336;2023-04-15T11:38:25;0.20;;;0.20;;
15490;SDS011;7847;50.930;4.336;2023-04-15T11:40:52;0.20;;;0.20;;
15490;SDS011;7847;50.930;4.336;2023-04-15T11:43:19;0.30;;;0.30;;
15490;SDS011;7847;50.930;4.336;2023-04-15T11:48:17;0.20;;;0.20;;
15490;SDS011;7847;50.930;4.336;2023-04-15T11:50:44;0.20;;;0.20;;
15490;SDS011;7847;50.930;4.336;2023-04-15T11:53:11;0.20;;;0.20;;
15490;SDS011;7847;50.930;4.336;2023-04-15T11:55:44;0.20;;;0.20;;
15490;SDS011;7847;50.930;4.336;2023-04-15T11:58:12;0.20;;;0.20;;
15490;SDS011;7847;50.930;4.336;2023-04-15T12:00:39;0.20;;;0.20;;
15490;SDS011;7847;50.930;4.336;2023-04-15T12:03:12;0.20;;;0.20;;
15490;SDS011;7847;50.930;4.336;2023-04-15T12:08:23;0.20;;;0.20;;
15490;SDS011;7847;50.930;4.336;2023-04-15T12:10:49;0.20;;;0.20;;
15490;SDS011;7847;50.930;4.336;2023-04-15T12:13:15;0.20;;;0.20;;
15490;SDS011;7847;50.930;4.336;2023-04-15T12:15:41;0.22;;;0.22;;
15490;SDS011;7847;50.930;4.336;2023-04-15T12:18:15;0.20;;;0.20;;
15490;SDS011;7847;50.930;4.336;2023-04-15T12:20:44;0.20;;;0.20;;
15490;SDS011;7847;50.930;4.336;2023-04-15T12:23:11;0.30;;;0.30;;
15490;SDS011;7847;50.930;4.336;2023-04-15T12:25:37;0.20;;;0.20;;
15490;SDS011;7847;50.930;4.336;2023-04-15T12:28:09;0.20;;;0.20;;
15490;SDS011;7847;50.930;4.336;2023-04-15T12:30:36;0.20;;;0.20;;
15490;SDS011;7847;50.930;4.336;2023-04-15T12:33:02;0.20;;;0.20;;
15490;SDS011;7847;50.930;4.336;2023-04-15T12:35:28;0.30;;;0.30;;
15490;SDS011;7847;50.930;4.336;2023-04-15T12:37:54;0.20;;;0.20;;
15490;SDS011;7847;50.930;4.336;2023-04-15T12:40:21;0.20;;;0.20;;
15490;SDS011;7847;50.930;4.336;2023-04-15T12:42:47;0.30;;;0.30;;
15490;SDS011;7847;50.930;4.336;2023-04-15T12:45:13;0.30;;;0.30;;
15490;SDS011;7847;50.930;4.336;2023-04-15T12:47:39;0.20;;;0.20;;
15490;SDS011;7847;50.930;4.336;2023-04-15T12:50:05;0.20;;;0.20;;
15490;SDS011;7847;50.930;4.336;2023-04-15T12:52:31;0.20;;;0.20;;
15490;SDS011;7847;50.930;4.336;2023-04-15T12:54:57;0.30;;;0.30;;
15490;SDS011;7847;50.930;4.336;2023-04-15T12:57:24;0.20;;;0.20;;
15490;SDS011;7847;50.930;4.336;2023-04-15T12:59:50;0.10;;;0.10;;
15490;SDS011;7847;50.930;4.336;2023-04-15T13:02:16;0.20;;;0.20;;
15490;SDS011;7847;50.930;4.336;2023-04-15T13:04:45;0.20;;;0.20;;
15490;SDS011;7847;50.930;4.336;2023-04-15T13:07:11;0.20;;;0.20;;
15490;SDS011;7847;50.930;4.336;2023-04-15T13:09:38;0.20;;;0.20;;
15490;SDS011;7847;50.930;4.336;2023-04-15T13:12:04;0.20;;;0.20;;
15490;SDS011;7847;50.930;4.336;2023-04-15T13:14:30;0.20;;;0.20;;
15490;SDS011;7847;50.930;4.336;2023-04-15T13:16:56;0.20;;;0.20;;
15490;SDS011;7847;50.930;4.336;2023-04-15T13:19:22;0.20;;;0.20;;
15490;SDS011;7847;50.930;4.336;2023-04-15T13:21:48;0.20;;;0.20;;
15490;SDS011;7847;50.930;4.336;2023-04-15T13:24:14;0.20;;;0.20;;
15490;SDS011;7847;50.930;4.336;2023-04-15T13:26:40;0.20;;;0.20;;
15490;SDS011;7847;50.930;4.336;2023-04-15T13:29:06;0.20;;;0.20;;
15490;SDS011;7847;50.930;4.336;2023-04-15T13:31:32;0.20;;;0.20;;
15490;SDS011;7847;50.930;4.336;2023-04-15T13:33:58;0.20;;;0.20;;
15490;SDS011;7847;50.930;4.336;2023-04-15T13:36:25;0.20;;;0.20;;
15490;SDS011;7847;50.930;4.336;2023-04-15T13:38:51;0.20;;;0.20;;
15490;SDS011;7847;50.930;4.336;2023-04-15T13:41:17;0.20;;;0.20;;
15490;SDS011;7847;50.930;4.336;2023-04-15T13:43:45;0.20;;;0.20;;
15490;SDS011;7847;50.930;4.336;2023-04-15T13:46:11;0.20;;;0.20;;
15490;SDS011;7847;50.930;4.336;2023-04-15T13:48:37;0.20;;;0.20;;
15490;SDS011;7847;50.930;4.336;2023-04-15T13:51:03;0.20;;;0.20;;
15490;SDS011;7847;50.930;4.336;2023-04-15T13:53:29;0.20;;;0.20;;
15490;SDS011;7847;50.930;4.336;2023-04-15T13:55:55;0.20;;;0.20;;
15490;SDS011;7847;50.930;4.336;2023-04-15T13:58:21;0.20;;;0.20;;
15490;SDS011;7847;50.930;4.336;2023-04-15T14:00:47;0.20;;;0.20;;
15490;SDS011;7847;50.930;4.336;2023-04-15T14:03:13;0.20;;;0.20;;
15490;SDS011;7847;50.930;4.336;2023-04-15T14:05:39;0.20;;;0.20;;
15490;SDS011;7847;50.930;4.336;2023-04-15T14:08:05;0.20;;;0.20;;
15490;SDS011;7847;50.930;4.336;2023-04-15T14:10:32;0.20;;;0.20;;
15490;SDS011;7847;50.930;4.336;2023-04-15T14:12:58;0.20;;;0.20;;
15490;SDS011;7847;50.930;4.336;2023-04-15T14:15:24;0.20;;;0.20;;
15490;SDS011;7847;50.930;4.336;2023-04-15T14:17:50;0.20;;;0.20;;
15490;SDS011;7847;50.930;4.336;2023-04-15T14:20:16;0.20;;;0.20;;
15490;SDS011;7847;50.930;4.336;2023-04-15T14:22:43;0.20;;;0.20;;
15490;SDS011;7847;50.930;4.336;2023-04-15T14:25:09;0.20;;;0.20;;
15490;SDS011;7847;50.930;4.336;2023-04-15T14:27:35;0.20;;;0.20;;
15490;SDS011;7847;50.930;4.336;2023-04-15T14:30:01;0.20;;;0.20;;
15490;SDS011;7847;50.930;4.336;2023-04-15T14:32:27;0.20;;;0.20;;
15490;SDS011;7847;50.930;4.336;2023-04-15T14:34:53;0.20;;;0.20;;
15490;SDS011;7847;50.930;4.336;2023-04-15T14:37:19;0.20;;;0.20;;
15490;SDS011;7847;50.930;4.336;2023-04-15T14:39:45;0.20;;;0.20;;
15490;SDS011;7847;50.930;4.336;2023-04-15T14:42:11;0.20;;;0.20;;
15490;SDS011;7847;50.930;4.336;2023-04-15T14:44:37;0.30;;;0.30;;
15490;SDS011;7847;50.930;4.336;2023-04-15T14:47:04;0.20;;;0.20;;
15490;SDS011;7847;50.930;4.336;2023-04-15T14:49:30;0.20;;;0.20;;
15490;SDS011;7847;50.930;4.336;2023-04-15T14:51:56;0.30;;;0.30;;
15490;SDS011;7847;50.930;4.336;2023-04-15T14:54:22;0.28;;;0.28;;
15490;SDS011;7847;50.930;4.336;2023-04-15T14:56:49;0.30;;;0.30;;
15490;SDS011;7847;50.930;4.336;2023-04-15T14:59:15;0.20;;;0.20;;
15490;SDS011;7847;50.930;4.336;2023-04-15T15:01:41;0.20;;;0.20;;
15490;SDS011;7847;50.930;4.336;2023-04-15T15:04:08;0.20;;;0.20;;
15490;SDS011;7847;50.930;4.336;2023-04-15T15:06:35;0.20;;;0.20;;
15490;SDS011;7847;50.930;4.336;2023-04-15T15:09:01;0.20;;;0.20;;